Time,TemperatureF,DewpointF,PressureIn,WindDirection,WindDirectionDegrees,WindSpeedMPH,WindSpeedGustMPH,Humidity,HourlyPrecipIn,Conditions,Clouds,dailyrainin,SoftwareType,DateUTC
2013-04-29 00:01:00,53.8,43.9,30.02,WSW,255,4.5,9.8,69,0.00,,,0.00,WUHU216HW,2013-04-29 07:01:00,
2013-04-29 00:06:00,53.6,43.8,30.02,WSW,251,6.6,11.4,69,0.00,,,0.00,WUHU216HW,2013-04-29 07:06:00,
2013-04-29 00:11:00,53.6,43.8,30.02,WSW,253,7.3,11.4,69,0.00,,,0.00,WUHU216HW,2013-04-29 07:11:00,
2013-04-29 00:16:00,53.5,43.1,30.02,WSW,248,5.4,10.5,68,0.00,,,0.00,WUHU216HW,2013-04-29 07:16:00,
2013-04-29 00:21:00,53.5,43.6,30.02,WSW,255,6.5,8.7,69,0.00,,,0.00,WUHU216HW,2013-04-29 07:21:00,
2013-04-29 00:26:00,53.3,43.0,30.02,WSW,245,6.3,8.7,68,0.00,,,0.00,WUHU216HW,2013-04-29 07:26:00,
2013-04-29 00:31:00,53.3,43.0,30.02,West,270,8.1,8.5,68,0.00,,,0.00,WUHU216HW,2013-04-29 07:31:00,
2013-04-29 00:36:00,53.1,42.9,30.02,WSW,252,6.7,8.3,68,0.00,,,0.00,WUHU216HW,2013-04-29 07:36:00,
2013-04-29 00:41:00,53.1,42.9,30.02,SW,225,6.7,8.3,68,0.00,,,0.00,WUHU216HW,2013-04-29 07:41:00,
2013-04-29 00:46:00,53.1,42.4,30.02,WSW,256,4.4,8.3,67,0.00,,,0.00,WUHU216HW,2013-04-29 07:46:00,
2013-04-29 00:51:00,53.1,42.9,30.02,WSW,248,4.9,6.5,68,0.00,,,0.00,WUHU216HW,2013-04-29 07:51:00,
2013-04-29 00:56:00,53.1,42.4,30.03,WSW,248,5.4,6.5,67,0.00,,,0.00,WUHU216HW,2013-04-29 07:56:00,
2013-04-29 01:01:00,53.1,42.0,30.02,WSW,248,4.5,6.9,66,0.00,,,0.00,WUHU216HW,2013-04-29 08:01:00,
2013-04-29 01:07:00,52.9,41.9,30.03,WSW,243,5.4,7.2,66,0.00,,,0.00,WUHU216HW,2013-04-29 08:07:00,
2013-04-29 01:12:00,52.9,41.4,30.02,SW,225,4.7,7.2,65,0.00,,,0.00,WUHU216HW,2013-04-29 08:12:00,
2013-04-29 01:17:00,52.9,41.1,30.03,SW,225,5.6,6.7,64,0.00,,,0.00,WUHU216HW,2013-04-29 08:17:00,
2013-04-29 01:22:00,52.7,40.9,30.02,West,270,4.0,6.7,64,0.00,,,0.00,WUHU216HW,2013-04-29 08:22:00,
2013-04-29 01:27:00,52.6,41.1,30.03,WSW,253,3.4,6.0,65,0.00,,,0.00,WUHU216HW,2013-04-29 08:27:00,
2013-04-29 01:32:00,52.6,40.7,30.03,West,259,4.2,6.0,64,0.00,,,0.00,WUHU216HW,2013-04-29 08:32:00,
2013-04-29 01:37:00,52.6,39.9,30.03,WSW,248,4.5,6.0,62,0.00,,,0.00,WUHU216HW,2013-04-29 08:37:00,
2013-04-29 01:42:00,52.6,40.3,30.02,WSW,244,4.5,6.3,63,0.00,,,0.00,WUHU216HW,2013-04-29 08:42:00,
2013-04-29 01:47:00,52.6,40.7,30.02,SW,225,4.5,6.3,64,0.00,,,0.00,WUHU216HW,2013-04-29 08:47:00,
2013-04-29 01:52:00,52.6,40.7,30.02,SW,225,5.1,6.3,64,0.00,,,0.00,WUHU216HW,2013-04-29 08:52:00,
2013-04-29 01:57:00,52.7,40.9,30.02,WSW,248,5.6,6.3,64,0.00,,,0.00,WUHU216HW,2013-04-29 08:57:00,
2013-04-29 02:02:00,52.9,41.1,30.02,WSW,248,4.6,5.8,64,0.00,,,0.00,WUHU216HW,2013-04-29 09:02:00,
2013-04-29 02:07:00,52.9,40.6,30.02,WSW,248,4.0,5.8,63,0.00,,,0.00,WUHU216HW,2013-04-29 09:07:00,
2013-04-29 02:12:00,52.9,41.1,30.02,SW,225,2.7,5.4,64,0.00,,,0.00,WUHU216HW,2013-04-29 09:12:00,
2013-04-29 02:17:00,52.9,40.2,30.02,WSW,248,5.6,5.8,62,0.00,,,0.00,WUHU216HW,2013-04-29 09:17:00,
2013-04-29 02:22:00,52.9,40.2,30.02,WSW,240,4.8,6.5,62,0.00,,,0.00,WUHU216HW,2013-04-29 09:22:00,
2013-04-29 02:27:00,52.9,40.6,30.02,WSW,248,6.5,6.9,63,0.00,,,0.00,WUHU216HW,2013-04-29 09:27:00,
2013-04-29 02:33:00,52.9,40.2,30.02,WSW,248,8.1,8.1,62,0.00,,,0.00,WUHU216HW,2013-04-29 09:33:00,
2013-04-29 02:38:00,52.9,39.4,30.02,WSW,257,5.0,8.1,60,0.00,,,0.00,WUHU216HW,2013-04-29 09:38:00,
2013-04-29 02:43:00,52.9,39.8,30.02,WSW,249,6.9,8.1,61,0.00,,,0.00,WUHU216HW,2013-04-29 09:43:00,
2013-04-29 02:48:00,52.9,39.0,30.02,WSW,252,6.2,7.8,59,0.00,,,0.00,WUHU216HW,2013-04-29 09:48:00,
2013-04-29 02:53:00,52.9,39.0,30.01,West,270,5.4,7.6,59,0.00,,,0.00,WUHU216HW,2013-04-29 09:53:00,
2013-04-29 02:58:00,52.7,36.0,30.02,WSW,248,5.8,5.8,53,0.00,,,0.00,WUHU216HW,2013-04-29 09:58:00,
2013-04-29 03:03:00,52.6,34.9,30.02,WSW,248,6.7,6.7,51,0.00,,,0.00,WUHU216HW,2013-04-29 10:03:00,
2013-04-29 03:08:00,52.4,33.2,30.01,WSW,248,3.4,6.7,48,0.00,,,0.00,WUHU216HW,2013-04-29 10:08:00,
2013-04-29 03:13:00,52.2,30.8,30.01,West,259,3.6,5.6,44,0.00,,,0.00,WUHU216HW,2013-04-29 10:13:00,
2013-04-29 03:18:00,52.2,31.4,30.01,WSW,248,2.5,4.5,45,0.00,,,0.00,WUHU216HW,2013-04-29 10:18:00,
2013-04-29 03:23:00,52.2,30.2,30.01,WSW,251,3.7,4.7,43,0.00,,,0.00,WUHU216HW,2013-04-29 10:23:00,
2013-04-29 03:28:00,52.0,31.8,30.01,WSW,246,2.8,4.7,46,0.00,,,0.00,WUHU216HW,2013-04-29 10:28:00,
2013-04-29 03:33:00,52.2,30.2,30.01,WSW,250,4.2,5.4,43,0.00,,,0.00,WUHU216HW,2013-04-29 10:33:00,
2013-04-29 03:38:00,52.0,30.1,30.01,WSW,254,3.1,5.4,43,0.00,,,0.00,WUHU216HW,2013-04-29 10:38:00,
2013-04-29 03:43:00,52.0,30.7,30.01,WSW,248,3.4,4.7,44,0.00,,,0.00,WUHU216HW,2013-04-29 10:43:00,
2013-04-29 03:48:00,52.0,33.5,30.00,WSW,248,3.4,4.7,49,0.00,,,0.00,WUHU216HW,2013-04-29 10:48:00,
2013-04-29 03:54:00,52.2,27.2,30.00,WSW,250,4.0,4.7,38,0.00,,,0.00,WUHU216HW,2013-04-29 10:54:00,
2013-04-29 03:59:00,52.0,30.7,30.00,WSW,249,3.6,4.7,44,0.00,,,0.00,WUHU216HW,2013-04-29 10:59:00,
2013-04-29 04:04:00,52.0,27.1,30.00,WSW,248,3.6,4.7,38,0.00,,,0.00,WUHU216HW,2013-04-29 11:04:00,
2013-04-29 04:09:00,51.8,28.3,30.00,WSW,243,2.3,4.5,40,0.00,,,0.00,WUHU216HW,2013-04-29 11:09:00,
2013-04-29 04:14:00,51.8,24.8,30.00,WSW,248,3.6,4.5,35,0.00,,,0.00,WUHU216HW,2013-04-29 11:14:00,
2013-04-29 04:19:00,51.8,27.5,30.00,WSW,248,3.1,4.0,39,0.00,,,0.00,WUHU216HW,2013-04-29 11:19:00,
2013-04-29 04:24:00,51.8,26.9,30.00,WSW,252,4.3,4.9,38,0.00,,,0.00,WUHU216HW,2013-04-29 11:24:00,
2013-04-29 04:29:00,51.8,25.6,30.00,WSW,245,3.9,4.9,36,0.00,,,0.00,WUHU216HW,2013-04-29 11:29:00,
2013-04-29 04:34:00,51.8,28.8,30.00,WSW,248,2.5,4.7,41,0.00,,,0.00,WUHU216HW,2013-04-29 11:34:00,
2013-04-29 04:39:00,51.8,14.0,30.00,WSW,241,3.5,5.1,22,0.00,,,0.00,WUHU216HW,2013-04-29 11:39:00,
2013-04-29 04:44:00,51.7,19.4,30.00,WSW,240,2.1,5.1,28,0.00,,,0.00,WUHU216HW,2013-04-29 11:44:00,
2013-04-29 04:49:00,51.7,16.6,30.00,SW,222,3.0,4.5,25,0.00,,,0.00,WUHU216HW,2013-04-29 11:49:00,
2013-04-29 04:54:00,51.5,21.1,30.00,WSW,244,2.3,4.5,30,0.00,,,0.00,WUHU216HW,2013-04-29 11:54:00,
2013-04-29 04:59:00,51.5,18.3,30.00,WSW,240,1.6,3.4,27,0.00,,,0.00,WUHU216HW,2013-04-29 11:59:00,
2013-04-29 05:05:00,51.5,13.7,30.00,WSW,237,2.5,3.4,22,0.00,,,0.00,WUHU216HW,2013-04-29 12:05:00,
2013-04-29 05:10:00,51.5,16.5,30.00,WSW,244,1.7,3.6,25,0.02,,,0.02,WUHU216HW,2013-04-29 12:10:00,
2013-04-29 05:15:00,51.5,17.4,30.00,WSW,248,1.3,3.6,26,0.02,,,0.02,WUHU216HW,2013-04-29 12:15:00,
2013-04-29 05:20:00,51.5,5.8,30.00,WSW,248,2.4,2.9,16,0.02,,,0.02,WUHU216HW,2013-04-29 12:20:00,
2013-04-29 05:25:00,51.5,14.6,30.00,SW,227,1.5,2.7,23,0.02,,,0.02,WUHU216HW,2013-04-29 12:25:00,
2013-04-29 05:30:00,51.5,16.5,30.00,SSW,211,0.9,2.5,25,0.03,,,0.03,WUHU216HW,2013-04-29 12:30:00,
2013-04-29 05:35:00,51.3,18.2,30.00,WSW,237,0.8,2.0,27,0.03,,,0.03,WUHU216HW,2013-04-29 12:35:00,
2013-04-29 05:40:00,51.3,21.0,30.00,WSW,248,2.2,2.5,30,0.03,,,0.03,WUHU216HW,2013-04-29 12:40:00,
2013-04-29 05:45:00,51.3,15.4,30.00,WSW,248,2.5,2.5,24,0.03,,,0.03,WUHU216HW,2013-04-29 12:45:00,
2013-04-29 05:50:00,51.3,5.6,30.00,West,270,1.3,2.5,16,0.04,,,0.04,WUHU216HW,2013-04-29 12:50:00,
2013-04-29 05:55:00,51.3,4.1,30.00,WSW,255,1.8,2.5,15,0.04,,,0.04,WUHU216HW,2013-04-29 12:55:00,
2013-04-29 06:00:00,51.1,-0.6,30.00,WSW,248,1.4,2.5,12,0.04,,,0.04,WUHU216HW,2013-04-29 13:00:00,
2013-04-29 06:05:00,51.3,-2.0,30.01,WSW,254,3.8,5.4,11,0.04,,,0.04,WUHU216HW,2013-04-29 13:05:00,
2013-04-29 06:11:00,51.1,-3.6,30.01,WSW,258,3.6,5.4,5,0.02,,,0.04,WUHU216HW,2013-04-29 13:11:00,
2013-04-29 06:16:00,50.9,-3.8,30.01,WSW,248,4.0,4.9,3,0.02,,,0.04,WUHU216HW,2013-04-29 13:16:00,
2013-04-29 06:21:00,50.9,-2.2,30.01,SW,225,3.8,4.9,11,0.02,,,0.04,WUHU216HW,2013-04-29 13:21:00,
2013-04-29 06:26:00,50.8,-4.0,30.01,WSW,247,4.4,6.0,8,0.02,,,0.04,WUHU216HW,2013-04-29 13:26:00,
2013-04-29 06:31:00,50.6,-4.0,30.01,WSW,248,5.1,7.4,10,0.01,,,0.04,WUHU216HW,2013-04-29 13:31:00,
2013-04-29 06:36:00,50.6,-1.1,30.01,West,270,4.0,7.4,12,0.01,,,0.04,WUHU216HW,2013-04-29 13:36:00,
2013-04-29 06:41:00,50.4,3.3,30.02,WSW,258,4.4,5.6,15,0.01,,,0.04,WUHU216HW,2013-04-29 13:41:00,
2013-04-29 06:46:00,50.4,4.9,30.02,West,267,2.9,5.6,16,0.01,,,0.04,WUHU216HW,2013-04-29 13:46:00,
2013-04-29 06:51:00,50.2,10.8,30.02,WNW,282,3.0,7.4,20,0.00,,,0.04,WUHU216HW,2013-04-29 13:51:00,
2013-04-29 06:56:00,50.0,7.6,30.02,WNW,282,2.9,7.4,18,0.00,,,0.04,WUHU216HW,2013-04-29 13:56:00,
2013-04-29 07:01:00,50.0,10.6,30.02,West,263,3.7,7.4,20,0.00,,,0.04,WUHU216HW,2013-04-29 14:01:00,
2013-04-29 07:06:00,50.0,14.3,30.02,West,276,3.1,7.8,24,0.00,,,0.04,WUHU216HW,2013-04-29 14:06:00,
2013-04-29 07:11:00,49.9,12.3,30.02,WNW,299,2.6,7.8,22,0.00,,,0.04,WUHU216HW,2013-04-29 14:11:00,
2013-04-29 07:16:00,49.9,11.3,30.03,NW,321,3.3,6.0,21,0.00,,,0.04,WUHU216HW,2013-04-29 14:16:00,
2013-04-29 07:21:00,49.9,14.1,30.03,West,281,2.8,5.6,24,0.00,,,0.04,WUHU216HW,2013-04-29 14:21:00,
2013-04-29 07:27:00,49.9,11.3,30.03,WNW,282,3.1,5.6,21,0.00,,,0.04,WUHU216HW,2013-04-29 14:27:00,
2013-04-29 07:32:00,49.9,16.9,30.04,WNW,282,1.8,4.9,27,0.00,,,0.04,WUHU216HW,2013-04-29 14:32:00,
2013-04-29 07:37:00,49.9,20.4,30.03,WSW,248,1.9,3.6,31,0.00,,,0.04,WUHU216HW,2013-04-29 14:37:00,
2013-04-29 07:42:00,49.9,20.4,30.03,West,261,1.3,2.9,31,0.00,,,0.04,WUHU216HW,2013-04-29 14:42:00,
2013-04-29 07:47:00,49.9,23.0,30.04,WSW,248,3.4,5.4,35,0.00,,,0.04,WUHU216HW,2013-04-29 14:47:00,
2013-04-29 07:52:00,50.0,24.6,30.04,WNW,284,2.6,5.4,37,0.00,,,0.04,WUHU216HW,2013-04-29 14:52:00,
2013-04-29 07:57:00,50.0,23.2,30.04,West,270,2.6,5.4,35,0.00,,,0.04,WUHU216HW,2013-04-29 14:57:00,
2013-04-29 08:02:00,50.2,22.1,30.04,West,270,6.3,6.3,33,0.00,,,0.04,WUHU216HW,2013-04-29 15:02:00,
2013-04-29 08:07:00,50.2,27.9,30.04,WNW,292,4.7,7.6,42,0.00,,,0.04,WUHU216HW,2013-04-29 15:07:00,
2013-04-29 08:12:00,50.4,27.0,30.04,SW,225,3.4,7.6,40,0.00,,,0.04,WUHU216HW,2013-04-29 15:12:00,
2013-04-29 08:17:00,50.2,29.6,30.04,WSW,244,4.5,6.9,45,0.00,,,0.04,WUHU216HW,2013-04-29 15:17:00,
2013-04-29 08:22:00,50.4,28.1,30.05,West,270,4.5,6.9,42,0.00,,,0.04,WUHU216HW,2013-04-29 15:22:00,
2013-04-29 08:27:00,50.8,29.5,30.05,WSW,248,4.3,6.3,44,0.00,,,0.04,WUHU216HW,2013-04-29 15:27:00,
2013-04-29 08:32:00,50.9,33.9,30.05,WNW,294,4.4,6.5,52,0.00,,,0.04,WUHU216HW,2013-04-29 15:32:00,
2013-04-29 08:37:00,51.1,32.7,30.05,NW,315,2.7,6.5,49,0.00,,,0.04,WUHU216HW,2013-04-29 15:37:00,
2013-04-29 08:42:00,51.1,35.5,30.05,West,266,5.7,6.5,55,0.00,,,0.04,WUHU216HW,2013-04-29 15:42:00,
2013-04-29 08:48:00,51.3,33.4,30.05,WNW,293,4.3,6.5,50,0.00,,,0.04,WUHU216HW,2013-04-29 15:48:00,
2013-04-29 08:53:00,51.5,35.7,30.05,NW,309,3.6,6.5,55,0.00,,,0.04,WUHU216HW,2013-04-29 15:53:00,
2013-04-29 08:58:00,51.7,36.8,30.05,WSW,254,5.9,7.6,57,0.00,,,0.04,WUHU216HW,2013-04-29 15:58:00,
2013-04-29 09:03:00,51.8,39.6,30.05,West,270,6.3,7.6,63,0.00,,,0.04,WUHU216HW,2013-04-29 16:03:00,
2013-04-29 09:08:00,52.2,39.5,30.05,WSW,248,6.9,8.7,62,0.00,,,0.04,WUHU216HW,2013-04-29 16:08:00,
2013-04-29 09:13:00,52.4,39.3,30.05,WSW,248,4.9,8.7,61,0.00,,,0.04,WUHU216HW,2013-04-29 16:13:00,
2013-04-29 09:18:00,52.6,40.3,30.06,West,271,4.4,7.8,63,0.00,,,0.04,WUHU216HW,2013-04-29 16:18:00,
2013-04-29 09:23:00,52.7,42.1,30.05,North,0,5.6,6.5,67,0.00,,,0.04,WUHU216HW,2013-04-29 16:23:00,
2013-04-29 09:28:00,52.9,42.7,30.06,WSW,255,5.3,8.3,68,0.00,,,0.04,WUHU216HW,2013-04-29 16:28:00,
2013-04-29 09:33:00,53.3,42.6,30.05,WSW,248,4.0,8.3,67,0.00,,,0.04,WUHU216HW,2013-04-29 16:33:00,
2013-04-29 09:38:00,53.6,42.9,30.06,WNW,288,3.9,7.6,67,0.00,,,0.04,WUHU216HW,2013-04-29 16:38:00,
2013-04-29 09:43:00,54.0,43.7,30.06,SW,225,5.1,6.0,68,0.00,,,0.04,WUHU216HW,2013-04-29 16:43:00,
2013-04-29 09:48:00,54.4,44.5,30.05,NW,315,8.3,8.3,69,0.00,,,0.04,WUHU216HW,2013-04-29 16:48:00,
2013-04-29 09:53:00,54.5,43.8,30.05,WSW,257,4.2,8.3,67,0.00,,,0.04,WUHU216HW,2013-04-29 16:53:00,
2013-04-29 09:59:00,54.7,44.4,30.05,WNW,284,4.0,8.3,68,0.00,,,0.04,WUHU216HW,2013-04-29 16:59:00,
2013-04-29 10:04:00,55.1,44.7,30.05,SW,225,3.4,8.1,68,0.00,,,0.04,WUHU216HW,2013-04-29 17:04:00,
2013-04-29 10:09:00,55.1,44.7,30.05,SW,225,3.4,4.9,68,0.00,,,0.04,WUHU216HW,2013-04-29 17:09:00,
2013-04-29 10:14:00,55.3,44.9,30.05,NW,310,2.6,7.8,68,0.00,,,0.04,WUHU216HW,2013-04-29 17:14:00,
2013-04-29 10:19:00,55.6,44.8,30.06,WNW,293,8.1,8.5,67,0.00,,,0.04,WUHU216HW,2013-04-29 17:19:00,
2013-04-29 10:24:00,55.6,44.8,30.05,WNW,288,4.1,8.5,67,0.00,,,0.04,WUHU216HW,2013-04-29 17:24:00,
2013-04-29 10:29:00,55.8,45.0,30.06,NW,323,2.1,8.3,67,0.00,,,0.04,WUHU216HW,2013-04-29 17:29:00,
2013-04-29 10:34:00,55.8,44.6,30.06,NW,308,2.4,7.6,66,0.00,,,0.04,WUHU216HW,2013-04-29 17:34:00,
2013-04-29 10:39:00,55.8,44.2,30.06,WSW,244,7.1,9.4,65,0.00,,,0.04,WUHU216HW,2013-04-29 17:39:00,
2013-04-29 10:44:00,56.2,44.9,30.07,NW,315,4.5,9.4,66,0.00,,,0.04,WUHU216HW,2013-04-29 17:44:00,
2013-04-29 10:49:00,56.5,44.5,30.06,NNW,338,5.8,9.2,64,0.00,,,0.04,WUHU216HW,2013-04-29 17:49:00,
2013-04-29 10:54:00,56.0,43.1,30.07,WSW,241,5.1,10.5,62,0.00,,,0.04,WUHU216HW,2013-04-29 17:54:00,
2013-04-29 10:59:00,55.8,43.7,30.07,SSW,203,3.4,10.5,64,0.00,,,0.04,WUHU216HW,2013-04-29 17:59:00,
2013-04-29 11:04:00,55.8,41.2,30.07,West,270,8.5,12.8,58,0.00,,,0.04,WUHU216HW,2013-04-29 18:04:00,
2013-04-29 11:09:00,55.1,39.6,30.07,NW,315,8.5,12.8,56,0.00,,,0.04,WUHU216HW,2013-04-29 18:09:00,
2013-04-29 11:15:00,55.4,41.3,30.07,West,270,7.6,10.5,59,0.00,,,0.04,WUHU216HW,2013-04-29 18:15:00,
2013-04-29 11:20:00,56.2,43.8,30.07,WNW,303,3.5,10.1,63,0.00,,,0.04,WUHU216HW,2013-04-29 18:20:00,
2013-04-29 11:25:00,56.5,42.0,30.07,WSW,248,11.6,11.6,58,0.00,,,0.04,WUHU216HW,2013-04-29 18:25:00,
2013-04-29 11:30:00,55.8,40.2,30.07,WSW,251,7.8,12.1,56,0.00,,,0.04,WUHU216HW,2013-04-29 18:30:00,
2013-04-29 11:35:00,56.0,41.9,30.07,NW,324,3.7,12.1,59,0.00,,,0.04,WUHU216HW,2013-04-29 18:35:00,
2013-04-29 11:40:00,56.5,41.4,30.07,SW,225,6.7,8.1,57,0.00,,,0.04,WUHU216HW,2013-04-29 18:40:00,
2013-04-29 11:45:00,56.5,41.0,30.07,NW,320,5.3,8.1,56,0.00,,,0.04,WUHU216HW,2013-04-29 18:45:00,
2013-04-29 11:50:00,56.3,41.8,30.07,NW,315,6.3,8.3,58,0.00,,,0.04,WUHU216HW,2013-04-29 18:50:00,
2013-04-29 11:55:00,55.8,39.3,30.08,NNW,327,6.0,9.8,54,0.00,,,0.04,WUHU216HW,2013-04-29 18:55:00,
2013-04-29 12:00:00,55.6,40.1,30.07,WNW,286,5.1,9.8,56,0.00,,,0.04,WUHU216HW,2013-04-29 19:00:00,
2013-04-29 12:05:00,56.0,38.1,30.07,SW,225,11.4,11.4,51,0.00,,,0.04,WUHU216HW,2013-04-29 19:05:00,
2013-04-29 12:10:00,56.5,41.0,30.07,NNW,338,5.4,11.4,56,0.00,,,0.04,WUHU216HW,2013-04-29 19:10:00,
2013-04-29 12:15:00,56.9,40.0,30.07,WSW,248,13.0,15.0,53,0.00,,,0.04,WUHU216HW,2013-04-29 19:15:00,
2013-04-29 12:20:00,57.1,40.6,30.07,West,263,5.4,15.0,54,0.00,,,0.04,WUHU216HW,2013-04-29 19:20:00,
2013-04-29 12:26:00,58.0,41.4,30.07,WSW,248,7.2,13.0,54,0.00,,,0.04,WUHU216HW,2013-04-29 19:26:00,
2013-04-29 12:31:00,58.3,42.7,30.07,NNE,23,5.6,10.3,56,0.00,,,0.04,WUHU216HW,2013-04-29 19:31:00,
2013-04-29 12:36:00,58.0,42.9,30.07,WNW,293,11.0,11.0,57,0.00,,,0.04,WUHU216HW,2013-04-29 19:36:00,
2013-04-29 12:41:00,58.3,39.2,30.07,WSW,253,6.4,11.4,49,0.00,,,0.04,WUHU216HW,2013-04-29 19:41:00,
2013-04-29 12:46:00,58.5,41.0,30.07,West,265,5.8,11.4,52,0.00,,,0.04,WUHU216HW,2013-04-29 19:46:00,
2013-04-29 12:51:00,58.5,40.1,30.07,West,272,5.9,8.7,50,0.00,,,0.04,WUHU216HW,2013-04-29 19:51:00,
2013-04-29 12:56:00,59.0,42.4,30.07,WNW,293,4.3,8.7,54,0.00,,,0.04,WUHU216HW,2013-04-29 19:56:00,
2013-04-29 13:01:00,59.6,39.9,30.07,WNW,293,6.9,11.4,48,0.00,,,0.04,WUHU216HW,2013-04-29 20:01:00,
2013-04-29 13:06:00,59.0,39.3,30.06,West,270,5.8,11.4,48,0.00,,,0.04,WUHU216HW,2013-04-29 20:06:00,
2013-04-29 13:11:00,59.4,42.2,30.07,West,264,4.0,9.2,53,0.00,,,0.04,WUHU216HW,2013-04-29 20:11:00,
2013-04-29 13:16:00,59.2,39.5,30.07,SW,225,9.2,9.8,48,0.00,,,0.04,WUHU216HW,2013-04-29 20:16:00,
2013-04-29 13:21:00,58.5,40.1,30.06,West,267,8.8,11.2,50,0.00,,,0.04,WUHU216HW,2013-04-29 20:21:00,
2013-04-29 13:26:00,59.0,42.0,30.06,SSW,203,8.3,11.2,53,0.00,,,0.04,WUHU216HW,2013-04-29 20:26:00,
2013-04-29 13:31:00,59.8,42.1,30.06,West,261,3.9,9.4,52,0.00,,,0.04,WUHU216HW,2013-04-29 20:31:00,
2013-04-29 13:36:00,60.1,41.5,30.06,WSW,250,4.3,13.6,50,0.00,,,0.04,WUHU216HW,2013-04-29 20:36:00,
2013-04-29 13:41:00,60.3,42.1,30.06,NW,304,4.8,13.6,51,0.00,,,0.04,WUHU216HW,2013-04-29 20:41:00,
2013-04-29 13:47:00,60.7,43.4,30.06,NNW,345,2.6,8.7,53,0.00,,,0.04,WUHU216HW,2013-04-29 20:47:00,
2013-04-29 13:52:00,61.0,42.8,30.06,West,270,6.9,7.8,51,0.00,,,0.04,WUHU216HW,2013-04-29 20:52:00,
2013-04-29 13:57:00,61.2,41.9,30.06,West,261,6.4,11.0,49,0.00,,,0.04,WUHU216HW,2013-04-29 20:57:00,
2013-04-29 14:02:00,61.2,40.1,30.06,West,272,7.3,11.0,46,0.00,,,0.04,WUHU216HW,2013-04-29 21:02:00,
2013-04-29 14:07:00,60.8,41.6,30.05,SSW,203,2.4,10.3,49,0.00,,,0.04,WUHU216HW,2013-04-29 21:07:00,
2013-04-29 14:12:00,61.2,40.1,30.06,West,259,4.9,8.5,46,0.00,,,0.04,WUHU216HW,2013-04-29 21:12:00,
2013-04-29 14:17:00,61.4,41.5,30.06,WSW,248,8.9,11.4,48,0.00,,,0.04,WUHU216HW,2013-04-29 21:17:00,
2013-04-29 14:22:00,60.8,41.0,30.06,SW,228,5.9,11.4,48,0.00,,,0.04,WUHU216HW,2013-04-29 21:22:00,
2013-04-29 14:27:00,61.0,40.6,30.06,WSW,242,7.7,11.2,47,0.00,,,0.04,WUHU216HW,2013-04-29 21:27:00,
2013-04-29 14:32:00,61.7,43.4,30.06,NW,310,3.2,9.8,51,0.00,,,0.04,WUHU216HW,2013-04-29 21:32:00,
2013-04-29 14:37:00,60.8,40.4,30.06,West,267,8.6,11.0,47,0.00,,,0.04,WUHU216HW,2013-04-29 21:37:00,
2013-04-29 14:42:00,59.8,40.0,30.05,WSW,248,12.3,12.3,48,0.00,,,0.04,WUHU216HW,2013-04-29 21:42:00,
2013-04-29 14:47:00,60.3,41.0,30.05,WNW,293,7.8,12.3,49,0.00,,,0.04,WUHU216HW,2013-04-29 21:47:00,
2013-04-29 14:52:00,60.5,40.7,30.05,WNW,293,6.5,12.3,48,0.00,,,0.04,WUHU216HW,2013-04-29 21:52:00,
2013-04-29 14:57:00,61.0,42.3,30.05,WSW,248,4.5,11.0,50,0.00,,,0.04,WUHU216HW,2013-04-29 21:57:00,
2013-04-29 15:03:00,61.6,43.3,30.05,West,269,2.9,6.7,51,0.00,,,0.04,WUHU216HW,2013-04-29 22:03:00,
2013-04-29 15:08:00,61.7,41.8,30.05,WNW,293,6.9,8.9,48,0.00,,,0.04,WUHU216HW,2013-04-29 22:08:00,
2013-04-29 15:13:00,61.7,42.9,30.05,West,260,5.9,9.4,50,0.00,,,0.04,WUHU216HW,2013-04-29 22:13:00,
2013-04-29 15:18:00,61.7,41.2,30.05,West,270,7.6,9.4,47,0.00,,,0.04,WUHU216HW,2013-04-29 22:18:00,
2013-04-29 15:23:00,61.6,42.2,30.05,West,268,6.9,11.0,49,0.00,,,0.04,WUHU216HW,2013-04-29 22:23:00,
2013-04-29 15:28:00,61.6,43.7,30.05,WNW,293,4.3,11.9,52,0.00,,,0.04,WUHU216HW,2013-04-29 22:28:00,
2013-04-29 15:33:00,61.7,42.9,30.05,NW,322,3.5,11.9,50,0.00,,,0.04,WUHU216HW,2013-04-29 22:33:00,
2013-04-29 15:38:00,61.7,41.8,30.05,SW,225,9.4,9.4,48,0.00,,,0.04,WUHU216HW,2013-04-29 22:38:00,
2013-04-29 15:43:00,61.6,39.9,30.05,West,270,7.6,9.8,45,0.00,,,0.04,WUHU216HW,2013-04-29 22:43:00,
2013-04-29 15:48:00,60.8,40.4,30.05,WSW,250,7.3,10.5,47,0.00,,,0.04,WUHU216HW,2013-04-29 22:48:00,
2013-04-29 15:53:00,60.7,39.7,30.05,WSW,248,8.1,14.3,46,0.00,,,0.04,WUHU216HW,2013-04-29 22:53:00,
2013-04-29 15:58:00,60.8,38.7,30.04,WSW,243,11.6,14.3,44,0.00,,,0.04,WUHU216HW,2013-04-29 22:58:00,
2013-04-29 16:03:00,60.8,40.4,30.04,WNW,293,9.6,13.9,47,0.00,,,0.04,WUHU216HW,2013-04-29 23:03:00,
2013-04-29 16:08:00,61.2,40.7,30.04,North,349,3.1,11.4,47,0.00,,,0.04,WUHU216HW,2013-04-29 23:08:00,
2013-04-29 16:14:00,61.4,42.0,30.04,SSW,203,5.4,11.0,49,0.00,,,0.04,WUHU216HW,2013-04-29 23:14:00,
2013-04-29 16:19:00,61.6,41.6,30.04,WSW,248,6.7,11.0,48,0.00,,,0.04,WUHU216HW,2013-04-29 23:19:00,
2013-04-29 16:24:00,61.0,38.8,30.04,West,273,10.2,13.2,44,0.00,,,0.04,WUHU216HW,2013-04-29 23:24:00,
2013-04-29 16:29:00,60.5,38.3,30.04,West,267,9.4,13.2,44,0.00,,,0.04,WUHU216HW,2013-04-29 23:29:00,
2013-04-29 16:34:00,60.5,40.7,30.04,WNW,293,3.6,12.1,48,0.00,,,0.04,WUHU216HW,2013-04-29 23:34:00,
2013-04-29 16:39:00,60.7,39.1,30.04,WSW,256,7.4,11.0,45,0.00,,,0.04,WUHU216HW,2013-04-29 23:39:00,
2013-04-29 16:44:00,60.8,39.8,30.04,West,266,4.9,11.0,46,0.00,,,0.04,WUHU216HW,2013-04-29 23:44:00,
2013-04-29 16:49:00,60.8,41.6,30.04,West,270,3.6,9.8,49,0.00,,,0.04,WUHU216HW,2013-04-29 23:49:00,
2013-04-29 16:54:00,60.5,38.3,30.04,West,270,9.6,13.4,44,0.00,,,0.04,WUHU216HW,2013-04-29 23:54:00,
2013-04-29 16:59:00,60.1,38.6,30.04,West,273,7.3,13.4,45,0.00,,,0.04,WUHU216HW,2013-04-29 23:59:00,
2013-04-29 17:03:00,60.1,39.8,30.04,West,270,7.6,7.6,47,0.00,,,0.04,WUHU216HW,2013-04-30 00:03:00,
2013-04-29 17:04:00,60.1,39.8,30.04,West,270,7.6,12.5,47,0.00,,,0.04,WUHU216HW,2013-04-30 00:04:00,
2013-04-29 17:09:00,60.1,39.8,30.04,West,270,7.6,8.9,47,0.00,,,0.04,WUHU216HW,2013-04-30 00:09:00,
2013-04-29 18:00:00,58.1,37.4,30.05,NE,45,6.9,6.9,46,0.00,,,0.04,WUHU216HW,2013-04-30 01:00:00,
2013-04-29 18:05:00,58.3,37.0,30.05,WSW,253,5.2,6.9,45,0.00,,,0.04,WUHU216HW,2013-04-30 01:05:00,
2013-04-29 18:10:00,58.0,37.3,30.05,NW,315,8.3,11.2,46,0.00,,,0.04,WUHU216HW,2013-04-30 01:10:00,
2013-04-29 18:15:00,57.2,37.2,30.05,WSW,248,8.7,11.6,47,0.00,,,0.04,WUHU216HW,2013-04-30 01:15:00,
2013-04-29 18:20:00,56.7,36.6,30.05,West,273,6.9,11.6,47,0.00,,,0.04,WUHU216HW,2013-04-30 01:20:00,
2013-04-29 18:25:00,56.9,37.4,30.05,WNW,298,5.4,10.5,48,0.00,,,0.04,WUHU216HW,2013-04-30 01:25:00,
2013-04-29 18:30:00,56.9,36.8,30.05,West,270,8.5,9.8,47,0.00,,,0.04,WUHU216HW,2013-04-30 01:30:00,
2013-04-29 18:35:00,56.5,38.2,30.05,West,261,3.5,9.8,50,0.00,,,0.04,WUHU216HW,2013-04-30 01:35:00,
2013-04-29 18:40:00,56.5,37.0,30.05,West,279,5.6,8.3,48,0.00,,,0.04,WUHU216HW,2013-04-30 01:40:00,
2013-04-29 18:45:00,56.7,38.3,30.05,NNW,338,6.3,8.3,50,0.00,,,0.04,WUHU216HW,2013-04-30 01:45:00,
2013-04-29 18:50:00,56.2,37.3,30.05,WSW,248,6.3,7.6,49,0.00,,,0.04,WUHU216HW,2013-04-30 01:50:00,
2013-04-29 18:55:00,56.0,35.9,30.05,WNW,293,6.5,10.5,47,0.00,,,0.04,WUHU216HW,2013-04-30 01:55:00,
2013-04-29 19:01:00,55.6,35.6,30.05,West,270,9.8,10.5,47,0.00,,,0.04,WUHU216HW,2013-04-30 02:01:00,
2013-04-29 19:06:00,55.3,35.8,30.05,SW,225,8.5,10.5,48,0.00,,,0.04,WUHU216HW,2013-04-30 02:06:00,
2013-04-29 19:11:00,54.5,36.3,30.05,West,270,6.5,10.5,50,0.00,,,0.04,WUHU216HW,2013-04-30 02:11:00,
2013-04-29 19:16:00,53.8,35.1,30.05,NNW,338,4.7,6.5,49,0.00,,,0.04,WUHU216HW,2013-04-30 02:16:00,
2013-04-29 19:21:00,53.3,35.1,30.05,WSW,248,4.3,6.5,50,0.00,,,0.04,WUHU216HW,2013-04-30 02:21:00,
2013-04-29 19:26:00,52.9,34.3,30.05,WSW,248,6.9,8.3,49,0.00,,,0.04,WUHU216HW,2013-04-30 02:26:00,
2013-04-29 19:31:00,52.2,34.2,30.05,WSW,252,5.9,8.9,50,0.00,,,0.04,WUHU216HW,2013-04-30 02:31:00,
2013-04-29 19:36:00,51.8,34.3,30.05,WNW,286,3.3,8.9,51,0.00,,,0.04,WUHU216HW,2013-04-30 02:36:00,
2013-04-29 19:41:00,51.3,34.3,30.06,West,274,5.2,8.1,52,0.00,,,0.04,WUHU216HW,2013-04-30 02:41:00,
2013-04-29 19:46:00,51.1,34.6,30.05,WNW,302,2.7,8.5,53,0.00,,,0.04,WUHU216HW,2013-04-30 02:46:00,
2013-04-29 19:51:00,50.8,34.7,30.06,West,266,5.4,8.5,54,0.00,,,0.04,WUHU216HW,2013-04-30 02:51:00,
2013-04-29 19:56:00,50.4,35.3,30.06,WSW,248,7.6,8.1,56,0.00,,,0.04,WUHU216HW,2013-04-30 02:56:00,
2013-04-29 20:01:00,50.0,35.4,30.06,WNW,293,4.7,7.6,57,0.00,,,0.04,WUHU216HW,2013-04-30 03:01:00,
2013-04-29 20:06:00,49.7,35.5,30.07,West,265,3.5,6.3,58,0.00,,,0.04,WUHU216HW,2013-04-30 03:06:00,
2013-04-29 20:11:00,49.5,35.3,30.07,WSW,251,2.5,6.0,58,0.00,,,0.04,WUHU216HW,2013-04-30 03:11:00,
2013-04-29 20:17:00,49.3,35.2,30.07,WNW,293,2.5,6.3,58,0.00,,,0.04,WUHU216HW,2013-04-30 03:17:00,
2013-04-29 20:22:00,49.0,35.3,30.07,WSW,254,3.1,6.3,59,0.00,,,0.04,WUHU216HW,2013-04-30 03:22:00,
2013-04-29 20:27:00,48.6,34.9,30.07,WNW,293,3.4,6.3,59,0.00,,,0.04,WUHU216HW,2013-04-30 03:27:00,
2013-04-29 20:32:00,48.4,34.8,30.08,WSW,248,2.7,5.1,59,0.00,,,0.04,WUHU216HW,2013-04-30 03:32:00,
2013-04-29 20:37:00,48.1,34.9,30.08,NW,315,2.7,5.8,60,0.00,,,0.04,WUHU216HW,2013-04-30 03:37:00,
2013-04-29 20:42:00,47.7,34.9,30.08,NW,315,2.2,6.3,61,0.00,,,0.04,WUHU216HW,2013-04-30 03:42:00,
2013-04-29 20:47:00,47.3,34.6,30.08,West,270,3.1,6.3,61,0.00,,,0.04,WUHU216HW,2013-04-30 03:47:00,
2013-04-29 20:52:00,47.2,34.4,30.08,West,270,4.9,4.9,61,0.00,,,0.04,WUHU216HW,2013-04-30 03:52:00,
2013-04-29 20:57:00,47.0,33.8,30.08,WNW,291,2.0,4.9,60,0.00,,,0.04,WUHU216HW,2013-04-30 03:57:00,
2013-04-29 21:01:00,46.8,33.7,30.08,NW,315,2.2,4.9,60,0.00,,,0.04,WUHU216HW,2013-04-30 04:01:00,
2013-04-29 21:02:00,46.8,33.7,30.08,NW,319,1.8,4.9,60,0.00,,,0.04,WUHU216HW,2013-04-30 04:02:00,
2013-04-29 21:07:00,46.6,34.3,30.08,NW,308,2.0,3.4,62,0.00,,,0.04,WUHU216HW,2013-04-30 04:07:00,
2013-04-29 21:12:00,46.1,33.8,30.08,West,259,2.3,4.0,62,0.00,,,0.04,WUHU216HW,2013-04-30 04:12:00,
2013-04-29 21:17:00,45.7,33.4,30.08,NW,315,1.0,4.0,62,0.00,,,0.04,WUHU216HW,2013-04-30 04:17:00,
2013-04-29 21:22:00,45.5,33.7,30.09,WNW,293,2.0,2.9,63,0.00,,,0.04,WUHU216HW,2013-04-30 04:22:00,
2013-04-29 21:27:00,45.4,33.8,30.09,WNW,283,1.9,2.9,64,0.00,,,0.04,WUHU216HW,2013-04-30 04:27:00,
2013-04-29 21:32:00,45.0,33.6,30.09,West,281,1.7,2.5,64,0.00,,,0.04,WUHU216HW,2013-04-30 04:32:00,
2013-04-29 21:37:00,44.8,33.4,30.09,WNW,285,1.3,4.0,64,0.00,,,0.04,WUHU216HW,2013-04-30 04:37:00,
2013-04-29 21:43:00,44.8,33.4,30.09,West,274,2.7,4.3,64,0.00,,,0.04,WUHU216HW,2013-04-30 04:43:00,
2013-04-29 21:48:00,44.8,33.4,30.09,WSW,246,1.9,4.3,64,0.00,,,0.04,WUHU216HW,2013-04-30 04:48:00,
2013-04-29 21:53:00,44.8,33.4,30.09,WSW,248,2.0,2.7,64,0.00,,,0.04,WUHU216HW,2013-04-30 04:53:00,
2013-04-29 21:58:00,44.6,32.9,30.09,West,279,1.0,2.9,63,0.00,,,0.04,WUHU216HW,2013-04-30 04:58:00,
2013-04-29 22:03:00,44.6,32.9,30.09,NW,315,1.6,2.9,63,0.00,,,0.04,WUHU216HW,2013-04-30 05:03:00,
2013-04-29 22:08:00,44.5,33.0,30.09,SW,231,0.7,1.6,64,0.00,,,0.04,WUHU216HW,2013-04-30 05:08:00,
2013-04-29 22:13:00,44.3,32.9,30.09,NNW,338,0.3,1.8,64,0.00,,,0.04,WUHU216HW,2013-04-30 05:13:00,
2013-04-29 22:18:00,44.3,32.9,30.09,NNW,338,0.4,1.8,64,0.00,,,0.04,WUHU216HW,2013-04-30 05:18:00,
2013-04-29 22:23:00,44.1,32.7,30.09,WSW,256,2.0,2.7,64,0.00,,,0.04,WUHU216HW,2013-04-30 05:23:00,
2013-04-29 22:28:00,43.9,32.9,30.09,West,270,2.2,2.7,65,0.00,,,0.04,WUHU216HW,2013-04-30 05:28:00,
2013-04-29 22:33:00,43.6,32.6,30.09,SW,225,3.4,3.4,65,0.00,,,0.04,WUHU216HW,2013-04-30 05:33:00,
2013-04-29 22:38:00,43.6,32.6,30.10,NW,315,0.3,3.4,65,0.00,,,0.04,WUHU216HW,2013-04-30 05:38:00,
2013-04-29 22:43:00,43.6,32.6,30.10,NW,315,0.0,1.3,65,0.00,,,0.04,WUHU216HW,2013-04-30 05:43:00,
2013-04-29 22:48:00,43.4,32.8,30.10,East,87,0.6,1.1,66,0.00,,,0.04,WUHU216HW,2013-04-30 05:48:00,
2013-04-29 22:53:00,43.2,32.6,30.10,NNW,338,1.1,2.2,66,0.00,,,0.04,WUHU216HW,2013-04-30 05:53:00,
2013-04-29 22:58:00,43.0,32.9,30.10,NE,45,0.4,2.2,67,0.00,,,0.04,WUHU216HW,2013-04-30 05:58:00,
2013-04-29 23:04:00,42.8,32.7,30.10,North,0,1.3,2.0,67,0.00,,,0.04,WUHU216HW,2013-04-30 06:04:00,
2013-04-29 23:09:00,42.5,32.3,30.10,NNW,338,0.0,2.0,67,0.00,,,0.04,WUHU216HW,2013-04-30 06:09:00,
2013-04-29 23:14:00,42.3,32.5,30.10,NNW,338,0.0,1.8,68,0.00,,,0.04,WUHU216HW,2013-04-30 06:14:00,
2013-04-29 23:19:00,42.1,32.3,30.10,SSE,158,0.0,0.7,68,0.00,,,0.04,WUHU216HW,2013-04-30 06:19:00,
2013-04-29 23:24:00,42.1,32.3,30.10,NW,315,0.2,1.8,68,0.00,,,0.04,WUHU216HW,2013-04-30 06:24:00,
2013-04-29 23:29:00,41.9,31.8,30.10,NW,315,0.2,1.8,67,0.00,,,0.04,WUHU216HW,2013-04-30 06:29:00,
2013-04-29 23:34:00,41.8,32.0,30.11,NW,315,0.0,0.2,68,0.00,,,0.04,WUHU216HW,2013-04-30 06:34:00,
2013-04-29 23:39:00,41.6,31.8,30.11,WNW,293,1.1,1.6,68,0.00,,,0.04,WUHU216HW,2013-04-30 06:39:00,
2013-04-29 23:44:00,41.2,31.5,30.11,WSW,255,2.1,2.5,68,0.00,,,0.04,WUHU216HW,2013-04-30 06:44:00,
2013-04-29 23:49:00,41.0,32.0,30.11,West,270,2.7,2.9,70,0.00,,,0.04,WUHU216HW,2013-04-30 06:49:00,
2013-04-29 23:54:00,40.7,31.7,30.11,WSW,248,2.0,2.9,70,0.00,,,0.04,WUHU216HW,2013-04-30 06:54:00,
2013-04-29 23:59:00,40.7,31.7,30.11,SW,225,2.0,2.9,70,0.00,,,0.04,WUHU216HW,2013-04-30 06:59:00,